Time;durP1;ratioP1;P1;durP2;ratioP2;P2;SDS_P1;SDS_P2;PMS_P1;PMS_P2;Temp;Humidity;BMP_temperature;BMP_pressure;BME280_temperature;BME280_humidity;BME280_pressure;Samples;Min_cycle;Max_cycle;Signal;HPM_P1;HPM_P2
2023/03/22 00:00:38;;;;;;;;;7.25;6.50;;;;;14.51;66.15;100859.00;6276980;22;45436;-79
2023/03/22 00:03:05;;;;;;;;;5.50;4.75;;;;;14.59;65.96;100870.28;6278328;22;46264;-79
2023/03/22 00:05:31;;;;;;;;;7.00;6.00;;;;;14.58;66.16;100872.06;6277566;22;45493;-79
2023/03/22 00:07:57;;;;;;;;;6.50;6.00;;;;;14.49;65.84;100860.88;6277843;22;45320;-79
2023/03/22 00:10:24;;;;;;;;;7.75;6.00;;;;;14.55;65.74;100866.84;6278100;22;45486;-79
2023/03/22 00:12:50;;;;;;;;;5.00;5.00;;;;;14.43;66.15;100849.50;6275376;22;45275;-79
2023/03/22 00:15:16;;;;;;;;;6.75;5.75;;;;;14.43;65.93;100838.75;6278106;22;45455;-79
2023/03/22 00:17:43;;;;;;;;;8.25;7.00;;;;;14.46;66.05;100860.06;6276490;22;45179;-79
2023/03/22 00:20:10;;;;;;;;;7.75;7.75;;;;;14.42;65.68;100842.38;6302581;22;45476;-79
2023/03/22 00:22:36;;;;;;;;;7.50;6.00;;;;;14.34;65.79;100831.09;6276303;22;48122;-79
2023/03/22 00:25:02;;;;;;;;;4.50;4.00;;;;;14.38;65.72;100843.47;6277448;22;45501;-79
2023/03/22 00:27:27;;;;;;;;;7.00;5.50;;;;;14.37;65.80;100841.72;6275585;22;45378;-79
2023/03/22 00:29:52;;;;;;;;;4.50;4.50;;;;;14.32;65.42;100826.75;6278465;22;45218;-79
2023/03/22 00:32:18;;;;;;;;;4.25;4.00;;;;;14.17;65.69;100818.47;6277617;22;49758;-79
2023/03/22 00:34:43;;;;;;;;;4.75;3.75;;;;;14.23;65.56;100822.66;6277580;22;49610;-79
2023/03/22 00:37:09;;;;;;;;;4.75;4.75;;;;;14.23;65.50;100823.56;6277792;22;45237;-79
2023/03/22 00:39:34;;;;;;;;;6.00;6.00;;;;;14.17;65.45;100817.59;6276853;22;45325;-79
2023/03/22 00:42:00;;;;;;;;;4.00;4.00;;;;;14.14;65.51;100809.69;6276386;22;46891;-79
2023/03/22 00:44:25;;;;;;;;;4.25;4.00;;;;;14.12;65.56;100808.91;6278362;22;45143;-79
2023/03/22 00:46:50;;;;;;;;;5.00;3.50;;;;;14.11;65.29;100807.13;6276056;22;45239;-79
2023/03/22 00:49:16;;;;;;;;;4.25;4.25;;;;;14.12;65.56;100803.53;6276233;22;48867;-79
2023/03/22 00:51:41;;;;;;;;;3.25;3.25;;;;;14.02;65.41;100797.72;6277714;22;45201;-79
2023/03/22 00:54:06;;;;;;;;;3.50;3.50;;;;;14.07;65.29;100809.97;6277864;22;47585;-79
2023/03/22 00:56:32;;;;;;;;;4.00;4.00;;;;;13.97;65.47;100791.69;6275814;22;45363;-79
2023/03/22 00:58:58;;;;;;;;;2.50;2.25;;;;;13.93;65.18;100782.00;6276139;22;45512;-79
2023/03/22 01:01:24;;;;;;;;;3.50;3.00;;;;;13.93;65.27;100798.97;6276616;22;48212;-79
2023/03/22 01:03:49;;;;;;;;;3.00;2.75;;;;;13.92;65.12;100797.25;6276108;22;45335;-79
2023/03/22 01:06:15;;;;;;;;;5.00;2.25;;;;;13.77;65.25;100787.22;6277023;22;45294;-79
2023/03/22 01:08:41;;;;;;;;;3.00;1.75;;;;;13.87;65.21;100804.63;6276102;22;45317;-79
2023/03/22 01:11:08;;;;;;;;;3.00;2.00;;;;;13.85;65.36;100795.78;6277471;22;45367;-79
2023/03/22 01:13:37;;;;;;;;;5.50;2.50;;;;;13.80;65.40;100787.94;6277421;22;45418;-79
2023/03/22 01:16:04;;;;;;;;;3.25;2.25;;;;;13.75;65.28;100797.13;6277555;22;45194;-79
2023/03/22 01:18:29;;;;;;;;;3.50;2.00;;;;;13.59;65.47;100760.25;6276287;22;45321;-79
2023/03/22 01:20:55;;;;;;;;;3.00;3.00;;;;;13.70;65.27;100775.91;6277637;22;45225;-79
2023/03/22 01:23:20;;;;;;;;;3.50;2.50;;;;;13.67;65.11;100771.53;6277729;22;45266;-79
2023/03/22 01:25:46;;;;;;;;;2.25;1.50;;;;;13.72;65.24;100768.63;6276621;22;45394;-79
2023/03/22 01:28:11;;;;;;;;;1.50;1.00;;;;;13.73;65.19;100772.19;6275864;22;45385;-79
2023/03/22 01:30:40;;;;;;;;;3.50;1.25;;;;;13.68;65.18;100767.03;6275754;22;50519;-79
2023/03/22 01:33:06;;;;;;;;;1.25;1.25;;;;;13.60;65.24;100742.34;6277828;22;45486;-79
2023/03/22 01:35:32;;;;;;;;;1.50;1.50;;;;;13.62;64.98;100746.72;6274467;22;45263;-79
2023/03/22 01:37:58;;;;;;;;;3.25;0.75;;;;;13.55;65.11;100734.53;6275971;22;45633;-79
2023/03/22 01:40:24;;;;;;;;;2.50;2.50;;;;;13.62;65.10;100746.72;6277373;22;55207;-79
2023/03/22 01:42:52;;;;;;;;;2.00;1.00;;;;;13.52;64.97;100722.13;6278230;22;45223;-79
2023/03/22 01:45:35;;;;;;;;;1.50;1.50;;;;;13.62;65.27;100736.00;6276390;22;45296;-79
2023/03/22 01:48:07;;;;;;;;;3.00;2.00;;;;;13.49;65.02;100721.38;6277829;22;45317;-79
2023/03/22 01:50:33;;;;;;;;;3.00;2.00;;;;;13.48;65.03;100714.28;6277336;22;46198;-79
2023/03/22 01:53:00;;;;;;;;;1.00;1.00;;;;;13.47;65.09;100723.28;6278110;22;45646;-79
2023/03/22 01:55:26;;;;;;;;;1.00;1.00;;;;;13.54;65.21;100727.41;6277562;22;45322;-79
2023/03/22 01:57:53;;;;;;;;;2.25;2.00;;;;;13.56;65.40;100728.22;6276674;22;45253;-79
2023/03/22 02:00:21;;;;;;;;;1.00;1.00;;;;;13.46;65.08;100703.63;6277394;22;45979;-79
2023/03/22 02:02:49;;;;;;;;;1.25;1.25;;;;;13.58;65.24;100722.78;6277876;22;45193;-79
2023/03/22 02:05:16;;;;;;;;;3.00;2.00;;;;;13.45;65.22;100699.22;6277279;22;45205;-79
2023/03/22 02:07:42;;;;;;;;;1.75;1.75;;;;;13.58;65.51;100707.59;6277322;22;45293;-79
2023/03/22 02:10:13;;;;;;;;;1.25;1.25;;;;;13.57;65.11;100704.97;6277906;22;46133;-79
2023/03/22 02:12:58;;;;;;;;;2.00;1.00;;;;;13.60;65.21;100694.06;6275858;22;45250;-79
2023/03/22 02:15:37;;;;;;;;;3.00;2.00;;;;;13.60;65.07;100683.34;6277877;22;45423;-79
2023/03/22 02:18:29;;;;;;;;;5.75;2.75;;;;;13.50;65.07;100672.19;6274471;22;45375;-79
2023/03/22 02:21:33;;;;;;;;;3.50;1.75;;;;;13.47;65.09;100673.19;6275659;22;47279;-79
2023/03/22 02:24:44;;;;;;;;;2.50;2.50;;;;;13.46;65.37;100670.56;6275508;22;45295;-79
2023/03/22 02:27:19;;;;;;;;;1.00;1.00;;;;;13.47;65.33;100685.75;6274445;22;45184;-79
2023/03/22 02:29:58;;;;;;;;;5.00;2.00;;;;;13.39;65.00;100672.66;6277668;22;45493;-79
2023/03/22 02:32:39;;;;;;;;;2.00;1.75;;;;;13.42;65.57;100674.34;6277758;22;46476;-79
2023/03/22 02:35:19;;;;;;;;;2.00;2.00;;;;;13.38;65.56;100670.06;6277039;22;45244;-79
2023/03/22 02:38:09;;;;;;;;;3.00;1.75;;;;;13.33;65.41;100668.47;6276948;22;45338;-79
2023/03/22 02:40:52;;;;;;;;;1.75;1.00;;;;;13.26;65.36;100664.25;6277508;22;45207;-79
2023/03/22 02:43:29;;;;;;;;;4.00;1.00;;;;;13.15;65.53;100650.50;6277470;22;46666;-79
2023/03/22 02:46:20;;;;;;;;;3.00;2.00;;;;;13.15;65.72;100647.81;6277241;22;45381;-79
2023/03/22 02:49:20;;;;;;;;;2.25;1.75;;;;;13.29;65.91;100674.84;6276630;22;45278;-79
2023/03/22 02:51:57;;;;;;;;;2.25;2.00;;;;;13.21;65.61;100676.13;6276915;22;45273;-79
2023/03/22 02:54:38;;;;;;;;;3.75;1.00;;;;;13.21;65.74;100682.38;6275591;22;47438;-79
2023/03/22 02:57:13;;;;;;;;;2.50;1.25;;;;;13.14;65.72;100671.03;6276040;22;45364;-79
2023/03/22 02:59:42;;;;;;;;;3.25;2.00;;;;;13.20;65.82;100680.63;6279032;22;45197;-79
2023/03/22 03:02:11;;;;;;;;;3.00;2.00;;;;;13.16;65.90;100679.91;6276895;22;45199;-79
2023/03/22 03:04:42;;;;;;;;;4.00;2.00;;;;;13.08;66.01;100673.13;6276764;22;47146;-79
2023/03/22 03:07:10;;;;;;;;;3.25;1.25;;;;;13.12;66.05;100680.97;6278106;22;45375;-79
2023/03/22 03:09:38;;;;;;;;;2.50;2.00;;;;;13.08;66.08;100676.69;6277131;22;45232;-79
2023/03/22 03:12:12;;;;;;;;;1.00;1.00;;;;;13.10;65.99;100684.66;6278623;22;45315;-79
2023/03/22 03:14:38;;;;;;;;;2.50;1.00;;;;;13.03;66.22;100683.16;6278352;22;45319;-79
2023/03/22 03:17:08;;;;;;;;;1.00;1.00;;;;;13.06;66.20;100685.72;6276394;22;45537;-79
2023/03/22 03:19:42;;;;;;;;;3.75;2.00;;;;;13.08;66.11;100695.44;6278495;22;45274;-79
2023/03/22 03:22:23;;;;;;;;;2.00;2.00;;;;;13.10;66.25;100682.84;6278272;22;45155;-79
2023/03/22 03:24:59;;;;;;;;;1.75;1.00;;;;;13.02;66.32;100670.72;6278807;22;45434;-79
2023/03/22 03:27:35;;;;;;;;;3.00;2.00;;;;;13.10;66.21;100680.16;6277859;22;45466;-79
2023/03/22 03:30:12;;;;;;;;;3.25;1.50;;;;;13.09;65.76;100674.88;6277737;22;45401;-79
2023/03/22 03:32:46;;;;;;;;;2.25;1.50;;;;;13.07;66.27;100677.63;6277614;22;45189;-79
2023/03/22 03:35:21;;;;;;;;;2.75;1.50;;;;;13.08;66.45;100675.81;6278179;22;46728;-79
2023/03/22 03:38:08;;;;;;;;;2.25;2.00;;;;;13.08;66.22;100683.84;6278196;22;45421;-79
2023/03/22 03:40:40;;;;;;;;;3.50;2.00;;;;;13.05;66.44;100682.19;6278536;22;45442;-79
2023/03/22 03:43:07;;;;;;;;;2.75;1.00;;;;;13.03;66.37;100673.34;6279003;22;45551;-79
2023/03/22 03:45:35;;;;;;;;;0.00;0.00;;;;;12.95;66.46;100664.78;6276836;22;48167;-79
2023/03/22 03:48:05;;;;;;;;;3.00;1.25;;;;;12.83;66.33;100657.25;6278061;22;45246;-79
2023/03/22 03:50:30;;;;;;;;;1.25;1.25;;;;;12.94;66.57;100660.34;6275967;22;45186;-79
2023/03/22 03:52:56;;;;;;;;;2.75;1.00;;;;;12.98;66.55;100678.03;6278574;22;45384;-79
2023/03/22 03:55:23;;;;;;;;;2.00;2.00;;;;;12.90;66.53;100666.78;6278225;22;45843;-79
2023/03/22 03:57:49;;;;;;;;;3.50;1.00;;;;;12.92;66.49;100657.72;6276825;22;45698;-79
2023/03/22 04:00:15;;;;;;;;;1.75;1.75;;;;;12.94;66.64;100665.69;6278318;22;45266;-79
2023/03/22 04:02:41;;;;;;;;;1.00;1.00;;;;;12.95;66.59;100681.72;6277075;22;45407;-79
2023/03/22 04:05:08;;;;;;;;;1.50;1.00;;;;;12.81;66.59;100648.41;6275944;22;47039;-79
2023/03/22 04:07:33;;;;;;;;;2.50;2.00;;;;;12.88;66.80;100666.84;6276099;22;45255;-79
2023/03/22 04:09:59;;;;;;;;;2.00;0.75;;;;;12.97;66.57;100692.34;6277649;22;45301;-79
2023/03/22 04:12:25;;;;;;;;;1.00;1.00;;;;;12.97;66.68;100671.78;6276918;22;45426;-79
2023/03/22 04:14:50;;;;;;;;;1.25;0.50;;;;;12.97;66.60;100678.97;6277156;22;45227;-79
2023/03/22 04:17:15;;;;;;;;;1.00;1.00;;;;;12.89;66.58;100675.75;6278093;22;45190;-79
2023/03/22 04:19:43;;;;;;;;;2.00;1.00;;;;;12.95;66.71;100681.72;6278733;22;45123;-79
2023/03/22 04:22:13;;;;;;;;;1.00;0.50;;;;;12.96;66.88;100674.53;6276351;22;45414;-79
2023/03/22 04:24:40;;;;;;;;;0.00;0.00;;;;;12.91;66.45;100657.78;6276741;22;47440;-79
2023/03/22 04:27:07;;;;;;;;;2.00;1.00;;;;;12.89;66.40;100652.50;6277459;22;45554;-79
2023/03/22 04:29:35;;;;;;;;;1.00;0.00;;;;;13.03;66.45;100676.03;6276721;22;45223;-79
2023/03/22 04:32:01;;;;;;;;;2.00;1.25;;;;;12.95;66.56;100659.41;6276088;22;45397;-79
2023/03/22 04:34:26;;;;;;;;;2.00;1.00;;;;;12.98;66.53;100668.19;6278078;22;46154;-79
2023/03/22 04:36:53;;;;;;;;;2.00;0.00;;;;;12.96;66.59;100654.00;6276480;22;45226;-79
2023/03/22 04:39:18;;;;;;;;;1.00;1.00;;;;;12.94;66.75;100641.59;6278443;22;45217;-79
2023/03/22 04:41:44;;;;;;;;;1.50;0.50;;;;;13.05;66.64;100657.22;6278448;22;45170;-79
2023/03/22 04:44:09;;;;;;;;;1.00;0.50;;;;;13.02;66.38;100657.34;6277432;22;46881;-79
2023/03/22 04:46:35;;;;;;;;;1.00;1.00;;;;;12.93;66.44;100647.88;6278040;22;45177;-79
2023/03/22 04:49:02;;;;;;;;;1.00;0.25;;;;;12.82;66.37;100632.28;6278117;22;45231;-79
2023/03/22 04:51:27;;;;;;;;;2.00;1.00;;;;;12.87;66.56;100632.09;6277224;22;45211;-79
2023/03/22 04:53:53;;;;;;;;;3.75;1.00;;;;;13.01;66.46;100644.88;6276510;22;47005;-79
2023/03/22 04:56:19;;;;;;;;;1.00;1.00;;;;;13.01;66.48;100651.09;6278075;22;45449;-79
2023/03/22 04:58:45;;;;;;;;;0.00;0.00;;;;;12.87;66.57;100624.91;6276112;22;45298;-79
2023/03/22 05:01:13;;;;;;;;;0.75;0.25;;;;;13.02;66.68;100655.50;6277232;22;45182;-79
2023/03/22 05:03:40;;;;;;;;;1.00;1.00;;;;;12.96;66.76;100642.38;6276483;22;45738;-79
2023/03/22 05:06:06;;;;;;;;;1.00;1.00;;;;;12.95;66.73;100632.63;6277639;22;45431;-79
2023/03/22 05:08:33;;;;;;;;;1.75;1.75;;;;;13.07;66.66;100647.28;6276553;22;45289;-79
2023/03/22 05:11:04;;;;;;;;;2.25;1.25;;;;;13.04;66.66;100631.34;6277931;22;45469;-79
2023/03/22 05:13:30;;;;;;;;;1.50;1.00;;;;;13.02;66.95;100634.09;6277809;22;46497;-79
2023/03/22 05:15:55;;;;;;;;;1.00;1.00;;;;;13.11;66.48;100638.16;6276539;22;45879;-79
2023/03/22 05:18:25;;;;;;;;;4.75;1.00;;;;;13.13;66.52;100645.19;6278254;22;45161;-79
2023/03/22 05:20:52;;;;;;;;;2.50;2.00;;;;;13.07;66.59;100639.25;6275194;22;45601;-79
2023/03/22 05:23:19;;;;;;;;;2.00;1.00;;;;;13.06;66.29;100646.38;6277333;22;45423;-79
2023/03/22 05:25:46;;;;;;;;;2.00;2.00;;;;;13.13;66.36;100655.03;6277928;22;45382;-79
2023/03/22 05:28:13;;;;;;;;;1.50;1.00;;;;;12.94;66.65;100631.72;6275951;22;45152;-79
2023/03/22 05:30:40;;;;;;;;;2.75;1.25;;;;;13.16;66.42;100658.47;6276066;22;45397;-79
2023/03/22 05:33:06;;;;;;;;;2.50;1.25;;;;;13.16;66.60;100652.22;6277659;22;45836;-79
2023/03/22 05:35:33;;;;;;;;;2.00;2.00;;;;;13.12;66.56;100651.47;6277291;22;45244;-79
2023/03/22 05:37:59;;;;;;;;;4.50;2.00;;;;;13.05;66.81;100633.94;6277937;22;45213;-79
2023/03/22 05:40:25;;;;;;;;;6.25;2.00;;;;;13.04;66.67;100629.50;6278062;22;45433;-79
2023/03/22 05:42:51;;;;;;;;;2.00;2.00;;;;;13.07;66.89;100642.78;6277698;22;45123;-79
2023/03/22 05:45:17;;;;;;;;;2.00;1.00;;;;;12.98;67.02;100630.66;6277085;22;45472;-79
2023/03/22 05:47:43;;;;;;;;;2.50;2.50;;;;;13.06;67.07;100651.75;6278403;22;45195;-79
2023/03/22 05:50:12;;;;;;;;;2.75;2.00;;;;;12.94;66.75;100626.38;6275324;22;45864;-79
2023/03/22 05:52:37;;;;;;;;;2.75;2.75;;;;;13.03;67.15;100638.50;6278053;22;45352;-79
2023/03/22 05:55:04;;;;;;;;;4.50;2.00;;;;;12.98;67.07;100633.34;6276750;22;45241;-79
2023/03/22 05:57:29;;;;;;;;;5.00;3.00;;;;;13.06;67.08;100653.56;6276744;22;45179;-79
2023/03/22 05:59:55;;;;;;;;;5.50;3.75;;;;;12.96;67.07;100624.53;6277328;22;53543;-79
2023/03/22 06:02:21;;;;;;;;;3.50;3.00;;;;;13.08;67.21;100649.00;6275786;22;47084;-79
2023/03/22 06:04:47;;;;;;;;;3.00;3.00;;;;;13.01;67.45;100640.38;6277195;22;45394;-79
2023/03/22 06:07:12;;;;;;;;;3.25;3.25;;;;;13.01;66.88;100637.69;6275863;22;45296;-79
2023/03/22 06:09:38;;;;;;;;;3.75;3.00;;;;;13.04;67.53;100639.38;6277908;22;45257;-79
2023/03/22 06:12:04;;;;;;;;;3.00;3.00;;;;;12.88;67.43;100612.38;6277012;22;45818;-79
2023/03/22 06:14:29;;;;;;;;;4.50;3.25;;;;;12.81;67.71;100606.41;6277195;22;45304;-79
2023/03/22 06:16:55;;;;;;;;;5.00;2.25;;;;;12.86;67.47;100612.44;6302204;22;45258;-79
2023/03/22 06:19:20;;;;;;;;;4.50;4.00;;;;;12.93;67.88;100627.31;6276227;22;46051;-79
2023/03/22 06:21:45;;;;;;;;;5.00;3.00;;;;;12.93;67.86;100632.69;6274723;22;45275;-79
2023/03/22 06:24:11;;;;;;;;;4.00;4.00;;;;;12.93;67.60;100621.97;6275240;22;45837;-80
2023/03/22 06:26:36;;;;;;;;;3.00;3.00;;;;;12.79;67.86;100595.75;6277387;22;45650;-79
2023/03/22 06:29:04;;;;;;;;;3.75;3.50;;;;;12.92;67.46;100620.22;6277212;22;45274;-79
2023/03/22 06:31:30;;;;;;;;;3.00;3.00;;;;;12.89;68.12;100617.66;6277090;22;45277;-79
2023/03/22 06:33:55;;;;;;;;;6.75;4.50;;;;;12.95;67.51;100622.75;6276817;22;45199;-79
2023/03/22 06:36:21;;;;;;;;;5.00;3.25;;;;;12.96;67.45;100624.53;6277506;22;45590;-79
2023/03/22 06:38:46;;;;;;;;;4.75;3.25;;;;;13.07;67.91;100649.97;6275626;22;45882;-79
2023/03/22 06:41:11;;;;;;;;;5.50;4.25;;;;;13.06;67.67;100654.44;6276172;22;45237;-79
2023/03/22 06:43:37;;;;;;;;;2.75;2.75;;;;;12.89;67.80;100631.06;6273962;22;45188;-79
2023/03/22 06:46:02;;;;;;;;;6.50;3.75;;;;;13.04;67.77;100652.78;6275505;22;45704;-80
2023/03/22 06:48:28;;;;;;;;;3.75;3.25;;;;;12.91;67.60;100631.88;6276749;22;45209;-81
2023/03/22 06:50:53;;;;;;;;;3.75;3.50;;;;;13.12;67.51;100664.03;6276662;22;45170;-81
2023/03/22 06:53:18;;;;;;;;;4.00;3.00;;;;;13.03;67.50;100651.00;6277293;22;45439;-82
2023/03/22 06:55:44;;;;;;;;;5.00;3.00;;;;;13.11;67.49;100679.25;6300202;22;45736;-80
2023/03/22 06:58:09;;;;;;;;;5.75;4.00;;;;;13.09;67.70;100672.19;6275240;22;45241;-80
2023/03/22 07:00:35;;;;;;;;;4.25;3.00;;;;;13.07;67.53;100676.75;6275020;22;47060;-80
2023/03/22 07:03:00;;;;;;;;;3.75;2.75;;;;;13.06;67.58;100688.41;6277413;22;45351;-80
2023/03/22 07:05:25;;;;;;;;;6.00;4.25;;;;;13.10;67.78;100687.34;6276672;22;45356;-80
2023/03/22 07:07:51;;;;;;;;;3.50;3.00;;;;;12.98;67.79;100678.03;6276723;22;45327;-80
2023/03/22 07:10:16;;;;;;;;;4.00;3.00;;;;;13.01;67.71;100687.72;6276990;22;45299;-80
2023/03/22 07:12:41;;;;;;;;;4.00;4.00;;;;;13.03;67.83;100700.16;6276745;22;45267;-81
2023/03/22 07:15:07;;;;;;;;;3.75;3.75;;;;;12.95;67.98;100683.53;6274216;22;45265;-81
2023/03/22 07:17:33;;;;;;;;;4.50;3.75;;;;;12.96;68.08;100688.81;6275057;22;45458;-81
2023/03/22 07:19:58;;;;;;;;;5.00;5.00;;;;;12.93;67.96;100683.59;6275183;22;47233;-81
2023/03/22 07:22:24;;;;;;;;;4.50;3.75;;;;;12.95;68.14;100692.44;6274709;22;45514;-78
2023/03/22 07:24:50;;;;;;;;;4.75;3.50;;;;;13.00;68.24;100699.38;6269737;22;45721;-78
2023/03/22 07:27:17;;;;;;;;;5.00;3.75;;;;;13.00;67.98;100696.69;6276221;22;45287;-78
2023/03/22 07:29:42;;;;;;;;;5.75;4.00;;;;;12.91;68.15;100677.44;6276720;22;45263;-78
2023/03/22 07:32:08;;;;;;;;;5.00;5.00;;;;;13.00;68.23;100688.66;6274981;22;45310;-79
2023/03/22 07:34:33;;;;;;;;;5.75;3.00;;;;;12.94;68.26;100673.72;6275877;22;45198;-79
2023/03/22 07:36:59;;;;;;;;;4.50;3.50;;;;;13.00;68.28;100677.94;6276323;22;45487;-79
2023/03/22 07:39:24;;;;;;;;;4.00;3.00;;;;;13.05;68.30;100689.34;6276068;22;45285;-79
2023/03/22 07:41:51;;;;;;;;;7.00;5.00;;;;;13.06;68.35;100699.13;6276183;22;45244;-79
2023/03/22 07:44:16;;;;;;;;;6.00;4.25;;;;;13.00;68.19;100684.19;6277533;22;45282;-79
2023/03/22 07:46:42;;;;;;;;;4.75;4.75;;;;;13.04;68.30;100688.47;6278825;22;45210;-79
2023/03/22 07:49:07;;;;;;;;;5.25;5.00;;;;;13.03;68.17;100672.44;6278047;22;45865;-79
2023/03/22 07:51:32;;;;;;;;;5.00;3.75;;;;;13.20;68.29;100712.81;6276268;22;45290;-79
2023/03/22 07:53:58;;;;;;;;;5.00;3.00;;;;;13.19;68.08;100708.38;6276590;22;45298;-79
2023/03/22 07:56:23;;;;;;;;;3.50;3.50;;;;;13.20;67.99;100714.59;6278174;22;45444;-79
2023/03/22 07:58:48;;;;;;;;;4.00;4.00;;;;;13.25;68.20;100718.84;6274057;22;47305;-78
2023/03/22 08:01:13;;;;;;;;;3.00;2.25;;;;;13.25;68.21;100712.59;6275088;22;45217;-78
2023/03/22 08:03:39;;;;;;;;;3.00;3.00;;;;;13.20;68.52;100704.75;6276047;22;45221;-78
2023/03/22 08:06:06;;;;;;;;;3.50;3.00;;;;;13.15;68.36;100698.72;6275020;22;45354;-78
2023/03/22 08:08:34;;;;;;;;;3.25;3.25;;;;;13.22;68.66;100718.09;6276571;22;45318;-78
2023/03/22 08:11:00;;;;;;;;;6.00;5.75;;;;;13.17;68.77;100707.56;6274237;22;45540;-78
2023/03/22 08:13:25;;;;;;;;;5.25;3.00;;;;;13.20;68.69;100712.81;6277558;22;45312;-78
2023/03/22 08:15:50;;;;;;;;;6.50;3.75;;;;;13.22;68.96;100718.97;6276797;22;45273;-78
2023/03/22 08:18:16;;;;;;;;;2.50;2.25;;;;;13.23;69.08;100723.41;6276817;22;46369;-78
2023/03/22 08:20:44;;;;;;;;;4.50;3.50;;;;;13.24;68.84;100725.13;6276218;22;55399;-77
2023/03/22 08:23:14;;;;;;;;;3.50;3.00;;;;;13.24;68.84;100718.91;6302005;22;45311;-77
2023/03/22 08:25:41;;;;;;;;;8.00;3.75;;;;;13.23;68.91;100712.69;6276040;22;45393;-78
2023/03/22 08:28:07;;;;;;;;;4.00;4.00;;;;;13.20;68.80;100715.47;6277408;22;45392;-78
2023/03/22 08:30:32;;;;;;;;;4.00;3.00;;;;;13.28;68.64;100720.50;6269786;22;45309;-79
2023/03/22 08:32:58;;;;;;;;;3.25;3.25;;;;;13.24;69.10;100718.91;6274003;22;45824;-78
2023/03/22 08:35:23;;;;;;;;;5.00;3.50;;;;;13.21;69.30;100719.03;6273119;22;45505;-78
2023/03/22 08:37:53;;;;;;;;;4.00;3.25;;;;;13.20;69.13;100707.44;6276214;22;47763;-78
2023/03/22 08:40:18;;;;;;;;;5.00;3.75;;;;;13.22;69.06;100694.84;6275994;22;45222;-78
2023/03/22 08:42:43;;;;;;;;;3.25;3.00;;;;;13.29;69.24;100712.38;6276263;22;51180;-77
2023/03/22 08:45:09;;;;;;;;;5.00;4.00;;;;;13.34;69.46;100704.19;6275638;22;45300;-77
2023/03/22 08:47:34;;;;;;;;;4.50;3.00;;;;;13.28;69.43;100696.38;6277710;22;45238;-78
2023/03/22 08:50:00;;;;;;;;;5.00;2.75;;;;;13.31;69.40;100709.63;6277404;22;45189;-78
2023/03/22 08:52:25;;;;;;;;;4.75;4.75;;;;;13.33;69.70;100710.47;6277832;22;45181;-79
2023/03/22 08:54:52;;;;;;;;;3.25;3.00;;;;;13.39;69.65;100717.38;6277659;22;45324;-77
2023/03/22 08:57:20;;;;;;;;;3.50;3.25;;;;;13.39;69.82;100712.88;6274976;22;47040;-77
2023/03/22 08:59:45;;;;;;;;;5.00;4.00;;;;;13.35;69.67;100695.22;6277262;22;45249;-78
2023/03/22 09:02:11;;;;;;;;;5.50;3.25;;;;;13.35;70.05;100687.16;6276741;22;45159;-79
2023/03/22 09:04:36;;;;;;;;;4.25;2.50;;;;;13.37;70.16;100700.50;6275395;22;45738;-78
2023/03/22 09:07:01;;;;;;;;;3.25;3.25;;;;;13.40;70.58;100697.66;6276601;22;45343;-79
2023/03/22 09:09:27;;;;;;;;;4.00;3.00;;;;;13.39;70.87;100686.06;6276433;22;45174;-79
2023/03/22 09:11:52;;;;;;;;;3.00;2.00;;;;;13.40;71.02;100685.16;6276886;22;45213;-79
2023/03/22 09:14:17;;;;;;;;;5.75;4.25;;;;;13.42;70.88;100693.97;6277685;22;45369;-77
2023/03/22 09:16:43;;;;;;;;;5.00;3.50;;;;;13.43;70.80;100695.72;6277272;22;45245;-78
2023/03/22 09:19:08;;;;;;;;;5.25;3.75;;;;;13.49;70.90;100687.41;6277022;22;51534;-78
2023/03/22 09:21:35;;;;;;;;;5.25;5.25;;;;;13.46;71.05;100683.97;6275608;22;45596;-78
2023/03/22 09:24:00;;;;;;;;;5.50;4.00;;;;;13.52;71.39;100699.81;6276867;22;45318;-76
2023/03/22 09:26:26;;;;;;;;;6.00;4.00;;;;;13.52;71.36;100694.44;6276551;22;45307;-78
2023/03/22 09:28:52;;;;;;;;;6.75;2.25;;;;;13.47;71.54;100680.38;6275402;22;45834;-77
2023/03/22 09:31:17;;;;;;;;;6.25;4.00;;;;;13.53;71.92;100680.06;6276368;22;45322;-78
2023/03/22 09:33:43;;;;;;;;;5.25;5.25;;;;;13.49;72.15;100678.50;6274846;22;45470;-81
2023/03/22 09:36:10;;;;;;;;;4.00;4.00;;;;;13.41;72.00;100664.56;6276855;22;45494;-76
2023/03/22 09:38:36;;;;;;;;;7.00;5.00;;;;;13.47;72.01;100662.47;6271560;22;45253;-76
2023/03/22 09:41:06;;;;;;;;;5.25;4.75;;;;;13.58;72.04;100682.56;6268612;22;45243;-77
2023/03/22 09:43:57;;;;;;;;;5.00;3.75;;;;;13.57;72.04;100684.38;6274555;22;45455;-76
2023/03/22 09:46:29;;;;;;;;;5.00;4.75;;;;;13.55;72.09;100666.59;6275644;22;45579;-76
2023/03/22 09:48:58;;;;;;;;;6.50;5.50;;;;;13.57;72.17;100673.66;6275527;22;45582;-76
2023/03/22 09:51:26;;;;;;;;;5.25;5.25;;;;;13.61;72.24;100660.97;6272947;22;45403;-77
2023/03/22 09:53:52;;;;;;;;;4.00;4.00;;;;;13.60;72.64;100656.53;6273274;22;45904;-76
2023/03/22 09:56:24;;;;;;;;;7.25;5.00;;;;;13.61;72.33;100658.28;6274686;22;45446;-76
2023/03/22 09:59:06;;;;;;;;;5.00;4.00;;;;;13.56;72.14;100660.31;6275373;22;45375;-76
2023/03/22 10:01:52;;;;;;;;;4.50;4.50;;;;;13.56;72.75;100663.00;6275403;22;45361;-76
2023/03/22 10:04:35;;;;;;;;;4.25;4.25;;;;;13.43;72.49;100630.50;6277374;22;45238;-76
2023/03/22 10:07:40;;;;;;;;;3.75;3.75;;;;;13.55;72.63;100650.50;6278424;22;46560;-76
2023/03/22 10:10:17;;;;;;;;;7.00;6.25;;;;;13.56;72.88;100645.06;6257984;22;46296;-76
2023/03/22 10:12:56;;;;;;;;;7.00;6.00;;;;;13.51;73.02;100618.50;6270389;22;45456;-75
2023/03/22 10:15:51;;;;;;;;;6.25;6.00;;;;;13.56;73.44;100620.94;6274509;22;45388;-77
2023/03/22 10:18:26;;;;;;;;;5.75;5.00;;;;;13.53;73.41;100630.00;6260814;22;47151;-77
2023/03/22 10:20:59;;;;;;;;;7.50;5.00;;;;;13.52;73.39;100635.44;6273659;22;45455;-77
2023/03/22 10:23:41;;;;;;;;;6.00;6.00;;;;;13.44;73.09;100616.16;6275019;22;45426;-78
2023/03/22 10:26:12;;;;;;;;;7.50;4.75;;;;;13.52;73.50;100639.00;6276421;22;45392;-77
2023/03/22 10:28:42;;;;;;;;;8.00;6.00;;;;;13.57;73.62;100641.47;6273011;22;46993;-77
2023/03/22 10:31:16;;;;;;;;;6.25;5.50;;;;;13.45;73.28;100620.59;6275818;22;45403;-77
2023/03/22 10:33:54;;;;;;;;;8.00;6.00;;;;;13.52;73.47;100641.66;6275720;22;45384;-77
2023/03/22 10:36:23;;;;;;;;;7.00;7.00;;;;;13.59;73.96;100630.66;6274687;22;45178;-77
2023/03/22 10:38:54;;;;;;;;;6.50;5.75;;;;;13.59;73.69;100623.47;6272096;22;48012;-78
2023/03/22 10:41:24;;;;;;;;;7.00;6.00;;;;;13.57;73.88;100611.09;6272600;22;45510;-80
2023/03/22 10:44:02;;;;;;;;;6.00;6.00;;;;;13.62;73.91;100617.97;6271863;22;45325;-78
2023/03/22 10:46:34;;;;;;;;;6.25;5.75;;;;;13.64;74.42;100626.81;6274847;22;45214;-78
2023/03/22 10:49:02;;;;;;;;;6.50;6.00;;;;;13.59;73.65;100619.94;6275017;22;45389;-78
2023/03/22 10:51:47;;;;;;;;;6.00;6.00;;;;;13.59;73.75;100625.31;6274899;22;45269;-78
2023/03/22 10:54:16;;;;;;;;;3.50;3.50;;;;;13.55;73.75;100611.16;6273571;22;45295;-78
2023/03/22 10:56:41;;;;;;;;;5.25;5.25;;;;;13.67;73.91;100604.34;6272123;22;45884;-78
2023/03/22 10:59:07;;;;;;;;;5.50;5.00;;;;;13.52;73.71;100569.25;6274396;22;45492;-77
2023/03/22 11:01:38;;;;;;;;;4.00;3.25;;;;;13.57;73.58;100571.75;6273949;22;45731;-78
2023/03/22 11:04:15;;;;;;;;;7.00;5.25;;;;;13.68;73.61;100596.25;6274094;22;45265;-77
2023/03/22 11:06:51;;;;;;;;;8.00;6.00;;;;;13.67;73.47;100575.72;6275376;22;45329;-76
2023/03/22 11:09:19;;;;;;;;;5.25;4.75;;;;;13.74;74.00;100594.19;6275264;22;46031;-77
2023/03/22 11:12:01;;;;;;;;;6.00;5.00;;;;;13.75;73.84;100595.94;6274406;22;45294;-77
2023/03/22 11:14:42;;;;;;;;;5.25;5.25;;;;;13.75;73.67;100595.94;6274075;22;45131;-77
2023/03/22 11:17:13;;;;;;;;;7.75;7.00;;;;;13.79;73.41;100602.91;6273503;22;45273;-79
2023/03/22 11:20:00;;;;;;;;;7.00;6.75;;;;;13.82;73.84;100610.81;6276482;22;46288;-78
2023/03/22 11:22:38;;;;;;;;;6.75;6.00;;;;;13.82;73.60;100602.75;6276062;22;45175;-79
2023/03/22 11:25:19;;;;;;;;;8.50;7.75;;;;;13.77;73.55;100600.28;6274855;22;45357;-77
2023/03/22 11:27:55;;;;;;;;;5.00;5.00;;;;;13.83;73.78;100604.47;6277039;22;45579;-77
2023/03/22 11:30:30;;;;;;;;;9.00;7.50;;;;;13.78;73.88;100590.41;6276372;22;48213;-76
2023/03/22 11:33:20;;;;;;;;;5.25;5.00;;;;;13.89;73.55;100596.13;6278012;22;45249;-77